Time;durP1;ratioP1;P1;durP2;ratioP2;P2;SDS_P1;SDS_P2;PMS_P1;PMS_P2;Temp;Humidity;BMP_temperature;BMP_pressure;BME280_temperature;BME280_humidity;BME280_pressure;Samples;Min_cycle;Max_cycle;Signal;HPM_P1;HPM_P2
2022/04/02 00:01:31;;;;;;;13.03;2.20;;;;;;;11.46;92.15;101481.13;4999047;28;20436;-92
2022/04/02 00:03:59;;;;;;;13.90;2.20;;;;;;;11.45;92.72;101487.63;5024962;28;20538;-91
2022/04/02 00:06:27;;;;;;;7.37;2.00;;;;;;;11.40;92.75;101488.19;5002250;28;20538;-90
2022/04/02 00:08:56;;;;;;;10.77;2.27;;;;;;;11.43;92.96;101497.91;5002420;28;20451;-92
2022/04/02 00:11:26;;;;;;;14.73;2.87;;;;;;;11.39;92.87;101491.09;5033880;28;20436;-91
2022/04/02 00:13:54;;;;;;;7.90;2.50;;;;;;;11.34;92.47;101479.84;5014658;28;20449;-90
2022/04/02 00:16:24;;;;;;;15.40;6.10;;;;;;;11.25;93.12;101475.44;4982956;28;20495;-92
2022/04/02 00:18:55;;;;;;;9.07;3.13;;;;;;;11.33;92.92;101497.31;4996517;28;21005;-91
2022/04/02 00:21:25;;;;;;;10.87;2.60;;;;;;;11.28;92.46;101497.00;5017998;28;20454;-90
2022/04/02 00:23:53;;;;;;;6.10;2.37;;;;;;;11.12;93.20;101481.53;5002290;28;20453;-91
2022/04/02 00:26:26;;;;;;;19.50;2.30;;;;;;;11.11;93.32;101487.16;5020049;28;20443;-91
2022/04/02 00:28:54;;;;;;;8.90;2.63;;;;;;;11.08;93.24;101486.50;5017894;28;20524;-91
2022/04/02 00:31:23;;;;;;;5.93;2.23;;;;;;;11.10;93.29;101496.41;4998970;28;20472;-90
2022/04/02 00:33:55;;;;;;;9.00;2.33;;;;;;;11.00;93.27;101481.06;4997834;28;20861;-92
2022/04/02 00:36:37;;;;;;;9.73;2.20;;;;;;;10.96;92.50;101479.72;5017037;28;20458;-91
2022/04/02 00:39:25;;;;;;;8.97;2.17;;;;;;;11.00;92.65;101489.25;5034705;28;21039;-92
2022/04/02 00:41:57;;;;;;;7.60;1.97;;;;;;;10.82;92.51;101464.06;5019676;28;20471;-91
2022/04/02 00:45:00;;;;;;;9.53;2.20;;;;;;;10.92;92.57;101491.19;5019606;28;20849;-91
2022/04/02 00:47:28;;;;;;;5.67;2.27;;;;;;;10.73;92.67;101474.19;5020241;28;20506;-93
2022/04/02 00:50:02;;;;;;;3.33;2.00;;;;;;;10.75;92.19;101482.22;5018429;28;20506;-93
2022/04/02 00:52:33;;;;;;;11.33;2.33;;;;;;;10.72;92.44;101482.56;5004230;28;20566;-93
2022/04/02 00:55:01;;;;;;;9.23;2.23;;;;;;;10.54;92.10;101458.19;4999009;28;20444;-93
2022/04/02 00:57:29;;;;;;;9.17;2.13;;;;;;;10.50;92.37;101462.31;5000079;28;20864;-93
2022/04/02 01:00:00;;;;;;;3.13;1.93;;;;;;;10.49;92.10;101462.47;4986065;28;20452;-91
2022/04/02 01:02:34;;;;;;;6.87;1.63;;;;;;;10.41;92.89;101446.94;5002668;28;20978;-91
2022/04/02 01:05:04;;;;;;;10.37;2.20;;;;;;;10.48;92.94;101463.50;5002371;28;20437;-92
2022/04/02 01:07:32;;;;;;;5.30;1.90;;;;;;;10.43;92.92;101450.34;4998351;28;20458;-91
2022/04/02 01:10:04;;;;;;;10.57;2.13;;;;;;;10.50;92.72;101461.44;4999286;28;20463;-92
2022/04/02 01:12:33;;;;;;;9.83;2.10;;;;;;;10.38;92.67;101442.72;4989818;28;20451;-91
2022/04/02 01:15:10;;;;;;;6.40;2.00;;;;;;;10.34;92.82;101433.16;4996908;28;20483;-91
2022/04/02 01:18:03;;;;;;;6.10;1.70;;;;;;;10.43;92.50;101449.50;4998095;28;20475;-91
2022/04/02 01:20:32;;;;;;;7.07;2.10;;;;;;;10.29;92.81;101427.34;5030946;28;21033;-93
2022/04/02 01:23:09;;;;;;;7.97;2.23;;;;;;;10.18;92.27;101416.78;4982436;28;20445;-91
2022/04/02 01:25:38;;;;;;;5.73;2.90;;;;;;;10.12;91.72;101424.81;4997255;28;20448;-93
2022/04/02 01:28:14;;;;;;;4.40;2.07;;;;;;;10.06;91.01;101429.09;4983715;28;20468;-93
2022/04/02 01:31:08;;;;;;;5.30;1.93;;;;;;;10.00;90.97;101416.16;4997628;28;20467;-93
2022/04/02 01:33:40;;;;;;;10.20;2.30;;;;;;;9.80;90.87;101391.09;4997991;28;20957;-92
2022/04/02 01:36:11;;;;;;;5.37;2.10;;;;;;;9.56;90.23;101391.13;4997296;28;20452;-92
2022/04/02 01:38:45;;;;;;;6.73;2.17;;;;;;;9.46;92.15;101388.53;4997292;28;20526;-91
2022/04/02 01:41:31;;;;;;;9.57;2.13;;;;;;;9.59;93.38;101405.28;4997641;28;21014;-92
2022/04/02 01:44:19;;;;;;;7.23;2.70;;;;;;;9.66;93.85;101411.72;5013403;28;20436;-93
2022/04/02 01:47:00;;;;;;;6.37;2.10;;;;;;;9.68;93.56;101409.69;5013013;28;20892;-92
2022/04/02 01:49:29;;;;;;;8.70;1.93;;;;;;;9.57;92.85;101377.28;4999507;28;20458;-92
2022/04/02 01:51:59;;;;;;;8.90;2.53;;;;;;;9.65;92.85;101390.91;5037924;28;20483;-92
2022/04/02 01:54:27;;;;;;;7.43;3.07;;;;;;;9.70;92.60;101396.72;5004258;28;20436;-91
2022/04/02 01:56:55;;;;;;;4.90;1.93;;;;;;;9.67;93.14;101377.94;4999412;28;20448;-92
2022/04/02 01:59:25;;;;;;;7.90;2.70;;;;;;;9.74;92.96;101385.47;4998574;28;20990;-92
2022/04/02 02:02:11;;;;;;;13.80;2.53;;;;;;;9.84;93.27;101384.25;4997642;28;21009;-91
2022/04/02 02:04:39;;;;;;;3.17;1.80;;;;;;;9.80;92.85;101371.13;5011733;28;20455;-92
2022/04/02 02:07:07;;;;;;;3.43;1.80;;;;;;;9.78;92.66;101354.06;4993092;28;20452;-92
2022/04/02 02:09:37;;;;;;;8.40;1.97;;;;;;;9.79;92.46;101356.63;4981096;28;20440;-91
2022/04/02 02:12:07;;;;;;;5.43;1.90;;;;;;;9.62;91.77;101350.31;4998757;28;20535;-92
2022/04/02 02:14:38;;;;;;;10.30;2.20;;;;;;;9.53;91.27;101359.56;5007357;28;20455;-91
2022/04/02 02:17:11;;;;;;;7.00;1.80;;;;;;;9.55;91.25;101368.44;5018281;28;20809;-92
2022/04/02 02:19:39;;;;;;;8.87;2.10;;;;;;;9.46;91.43;101354.94;5010314;28;20486;-93
2022/04/02 02:22:11;;;;;;;9.33;2.40;;;;;;;9.38;92.12;101342.19;4991529;28;20445;-93
2022/04/02 02:24:42;;;;;;;9.37;2.13;;;;;;;9.39;92.70;101335.72;4998480;28;20943;-91
2022/04/02 02:27:30;;;;;;;4.60;1.73;;;;;;;9.55;92.37;101351.19;5002046;28;20437;-91
2022/04/02 02:29:58;;;;;;;7.07;1.87;;;;;;;9.41;92.33;101336.38;5015709;28;20474;-93
2022/04/02 02:32:36;;;;;;;7.83;1.70;;;;;;;9.35;92.64;101326.16;4985204;28;20432;-94
2022/04/02 02:38:08;;;;;;;10.00;1.60;;;;;;;9.30;92.69;101328.53;5023028;28;20471;-93
2022/04/02 02:40:55;;;;;;;4.90;1.40;;;;;;;9.32;92.67;101331.94;5004669;28;20428;-93
2022/04/02 02:43:28;;;;;;;3.10;1.20;;;;;;;9.25;92.59;101328.19;5020907;28;20484;-93
2022/04/02 02:46:10;;;;;;;3.23;1.37;;;;;;;9.20;92.51;101327.88;5018266;28;20926;-95
2022/04/02 02:48:47;;;;;;;4.63;1.73;;;;;;;8.98;92.41;101308.44;5016860;28;20472;-94
2022/04/02 02:51:24;;;;;;;6.17;2.27;;;;;;;8.94;92.62;101308.94;5017603;28;20474;-94
2022/04/02 02:53:57;;;;;;;6.17;1.87;;;;;;;8.98;93.23;101316.63;5035649;28;20522;-94
2022/04/02 02:56:36;;;;;;;3.90;1.87;;;;;;;8.95;93.95;101316.94;5022021;28;20442;-94
2022/04/02 02:59:15;;;;;;;5.80;1.60;;;;;;;8.96;93.95;101315.94;5018668;28;20473;-94
2022/04/02 03:02:29;;;;;;;8.60;2.23;;;;;;;9.00;93.41;101322.75;5032428;28;20443;-93
2022/04/02 03:05:16;;;;;;;6.80;1.70;;;;;;;8.88;93.33;101306.88;5023783;28;20432;-94
2022/04/02 03:08:03;;;;;;;4.47;1.60;;;;;;;8.72;92.54;101310.44;5000145;28;20452;-94
2022/04/02 03:10:42;;;;;;;10.10;2.00;;;;;;;8.72;92.25;101329.53;5017448;28;20448;-94
2022/04/02 03:13:18;;;;;;;4.87;1.50;;;;;;;8.55;93.08;101314.16;5016467;28;20882;-95
2022/04/02 03:15:55;;;;;;;7.10;1.63;;;;;;;8.53;93.07;101316.19;4985509;28;20448;-95
2022/04/02 03:18:32;;;;;;;6.73;2.23;;;;;;;8.53;93.83;101314.31;4997719;28;20507;-94
2022/04/02 03:21:55;;;;;;;6.50;2.73;;;;;;;8.67;93.32;101340.06;5000363;28;20439;-94
2022/04/02 03:24:32;;;;;;;7.80;2.03;;;;;;;8.57;93.52;101307.53;5015194;28;20440;-94
2022/04/02 03:27:16;;;;;;;2.37;1.67;;;;;;;8.65;93.45;101313.00;4997396;28;20448;-94
2022/04/02 03:29:43;;;;;;;5.03;1.80;;;;;;;8.63;93.05;101314.19;4997359;28;20475;-94
2022/04/02 03:32:14;;;;;;;3.90;1.90;;;;;;;8.54;93.02;101301.56;4952812;28;20441;-93
2022/04/02 03:34:46;;;;;;;4.20;1.40;;;;;;;8.63;92.67;101327.81;4950769;28;20497;-93
2022/04/02 03:37:37;;;;;;;4.20;2.20;;;;;;;8.60;92.76;101334.44;4963958;28;20465;-93
2022/04/02 03:40:10;;;;;;;7.40;1.90;;;;;;;8.56;93.07;101315.88;4963363;28;20516;-93
2022/04/02 03:49:22;;;;;;;3.90;2.20;;;;;;;8.41;92.42;101332.00;4961757;28;20438;-93
2022/04/02 03:52:03;;;;;;;5.00;3.63;;;;;;;8.39;92.69;101331.31;4944100;28;20454;-93
2022/04/02 03:54:32;;;;;;;2.70;2.07;;;;;;;8.30;92.56;101316.78;4924672;29;20461;-93
2022/04/02 03:57:14;;;;;;;6.00;2.37;;;;;;;8.29;92.64;101320.50;4924841;29;20555;-93
2022/04/02 03:59:52;;;;;;;4.70;2.53;;;;;;;8.25;92.65;101321.88;4923767;29;20489;-93
2022/04/02 04:02:21;;;;;;;5.33;2.20;;;;;;;8.21;92.85;101325.94;4940523;29;20538;-93
2022/04/02 04:04:59;;;;;;;7.60;2.17;;;;;;;8.22;92.80;101324.94;4914906;28;20458;-93
2022/04/02 04:07:33;;;;;;;4.20;2.00;;;;;;;8.19;92.75;101321.69;4938566;28;20470;-94
2022/04/02 04:10:01;;;;;;;3.30;1.73;;;;;;;8.17;92.08;101327.28;4928421;28;20442;-93
2022/04/02 04:13:05;;;;;;;4.63;1.87;;;;;;;8.10;91.95;101320.78;4927502;28;20454;-93
2022/04/02 04:15:42;;;;;;;2.80;1.57;;;;;;;8.10;92.37;101325.38;4959527;28;20549;-93
2022/04/02 04:18:34;;;;;;;2.50;1.87;;;;;;;8.08;92.64;101328.25;4959298;28;20445;-93
2022/04/02 04:21:09;;;;;;;8.40;1.97;;;;;;;8.03;92.75;101322.47;4943208;28;20965;-93
2022/04/02 04:23:38;;;;;;;2.83;1.77;;;;;;;8.01;92.65;101327.22;4958232;28;20504;-93
2022/04/02 04:26:09;;;;;;;2.40;1.10;;;;;;;8.02;92.22;101328.94;4947923;28;20450;-93
2022/04/02 04:29:12;;;;;;;5.10;1.67;;;;;;;7.97;92.01;101326.69;4957307;28;20995;-93
2022/04/02 04:32:06;;;;;;;16.33;1.63;;;;;;;7.95;92.28;101333.31;4993143;28;20479;-93
2022/04/02 04:34:36;;;;;;;3.80;1.70;;;;;;;7.90;92.20;101327.47;5009652;28;20445;-93
2022/04/02 04:37:13;;;;;;;4.93;1.57;;;;;;;7.93;92.49;101325.28;4989464;28;20996;-93
2022/04/02 04:39:41;;;;;;;2.90;1.30;;;;;;;7.84;91.74;101314.56;4998263;28;20507;-93
2022/04/02 04:42:10;;;;;;;1.80;1.40;;;;;;;7.86;91.75;101312.53;4982699;28;20467;-93
2022/04/02 04:45:03;;;;;;;1.73;1.43;;;;;;;8.04;91.70;101326.91;4982578;28;20544;-93
2022/04/02 04:47:36;;;;;;;3.63;1.73;;;;;;;8.08;91.49;101327.44;5014243;28;20495;-93
2022/04/02 04:50:22;;;;;;;2.13;1.30;;;;;;;8.03;91.15;101310.72;5002572;28;20453;-93
2022/04/02 04:53:00;;;;;;;2.93;1.20;;;;;;;8.24;90.58;101332.94;4982493;28;20524;-94
2022/04/02 04:55:27;;;;;;;3.93;1.23;;;;;;;8.28;90.29;101329.69;5032684;28;20443;-94
2022/04/02 04:58:11;;;;;;;3.50;1.40;;;;;;;8.29;90.13;101325.09;5024113;28;20508;-94
2022/04/02 05:00:41;;;;;;;3.23;1.37;;;;;;;8.29;89.64;101323.22;5021564;28;20461;-94
2022/04/02 05:03:24;;;;;;;3.20;1.30;;;;;;;8.39;89.96;101330.47;4987219;28;20455;-92
2022/04/02 05:05:53;;;;;;;2.70;1.33;;;;;;;8.18;90.03;101307.22;5016221;28;20432;-92
2022/04/02 05:08:39;;;;;;;2.60;1.20;;;;;;;8.23;89.90;101342.97;4996606;28;20858;-93
2022/04/02 05:11:17;;;;;;;4.03;1.70;;;;;;;8.19;90.85;101357.94;5001290;28;20809;-93
2022/04/02 05:13:49;;;;;;;2.27;1.37;;;;;;;8.09;91.19;101350.88;5029898;28;20452;-93
2022/04/02 05:16:19;;;;;;;2.00;1.50;;;;;;;8.03;91.43;101349.69;4989399;28;20460;-93
2022/04/02 05:19:07;;;;;;;2.50;1.63;;;;;;;8.09;91.52;101357.19;5012744;28;20548;-93
2022/04/02 05:21:38;;;;;;;4.70;1.57;;;;;;;8.09;91.59;101356.31;4997732;28;20977;-93
2022/04/02 05:24:09;;;;;;;2.20;1.43;;;;;;;7.98;91.79;101343.88;5016825;28;20997;-92
2022/04/02 05:26:49;;;;;;;4.20;1.43;;;;;;;8.10;92.01;101369.78;5015032;28;20499;-93
2022/04/02 05:29:30;;;;;;;2.60;1.37;;;;;;;8.00;91.73;101355.44;5014242;28;20456;-92
2022/04/02 05:32:13;;;;;;;2.57;1.50;;;;;;;7.94;91.84;101347.91;4987463;28;21048;-93
2022/04/02 05:34:48;;;;;;;2.20;1.40;;;;;;;8.02;91.78;101367.03;4982550;28;20934;-94
2022/04/02 05:37:16;;;;;;;3.10;1.10;;;;;;;7.96;91.82;101360.34;4994399;28;20420;-93
2022/04/02 05:39:45;;;;;;;4.47;1.73;;;;;;;7.95;91.59;101358.66;5022317;28;20468;-92
2022/04/02 05:42:41;;;;;;;1.60;1.13;;;;;;;8.17;91.34;101379.00;4998343;28;20481;-93
2022/04/02 05:45:32;;;;;;;1.60;0.90;;;;;;;8.38;89.58;101384.09;5029896;28;20455;-92
2022/04/02 05:48:12;;;;;;;2.20;1.30;;;;;;;8.48;87.17;101384.78;5003543;28;20486;-94
2022/04/02 05:50:41;;;;;;;1.77;1.17;;;;;;;8.49;86.88;101381.03;4982441;28;20474;-94
2022/04/02 05:53:17;;;;;;;5.00;1.60;;;;;;;8.51;87.80;101397.22;4999194;28;20449;-94
2022/04/02 05:56:40;;;;;;;2.53;1.40;;;;;;;8.53;87.81;101398.78;4997315;28;20444;-94
2022/04/02 05:59:13;;;;;;;1.60;0.90;;;;;;;8.54;85.56;101388.72;5016735;28;20479;-93
2022/04/02 06:01:41;;;;;;;1.70;1.10;;;;;;;8.74;83.60;101390.16;5019081;28;20458;-93
2022/04/02 06:04:18;;;;;;;2.80;1.50;;;;;;;8.90;81.94;101390.19;5005121;28;20517;-93
2022/04/02 06:06:48;;;;;;;2.30;1.30;;;;;;;9.01;80.70;101389.03;5003186;28;20459;-94
2022/04/02 06:09:39;;;;;;;3.43;1.27;;;;;;;9.18;79.91;101398.94;5005575;28;20509;-94
2022/04/02 06:12:10;;;;;;;2.00;1.10;;;;;;;9.17;78.64;101380.03;4946048;28;20446;-94
2022/04/02 06:14:50;;;;;;;1.93;0.93;;;;;;;9.23;78.22;101384.81;4946280;28;20489;-94
2022/04/02 06:17:27;;;;;;;1.50;1.00;;;;;;;9.35;78.19;101388.91;4930566;28;20445;-93
2022/04/02 06:20:18;;;;;;;2.50;1.80;;;;;;;9.38;77.90;101388.56;4945782;28;20485;-93
2022/04/02 06:22:57;;;;;;;2.50;1.20;;;;;;;9.27;77.70;101367.06;4942054;29;20486;-94
2022/04/02 06:25:37;;;;;;;3.90;1.03;;;;;;;9.41;77.09;101384.63;4926589;29;20443;-93
2022/04/02 06:28:20;;;;;;;1.40;1.20;;;;;;;9.44;76.60;101385.13;4926744;29;20443;-94
2022/04/02 06:30:52;;;;;;;2.87;1.40;;;;;;;9.51;75.47;101394.34;4925466;29;20474;-93
2022/04/02 06:33:22;;;;;;;3.40;1.00;;;;;;;9.55;74.91;101384.78;4926843;29;20427;-93
2022/04/02 06:36:07;;;;;;;3.93;1.13;;;;;;;9.62;74.12;101396.72;4942264;29;20541;-93
2022/04/02 06:38:36;;;;;;;2.33;0.93;;;;;;;9.60;73.67;101396.06;4945273;28;20461;-93
2022/04/02 06:41:12;;;;;;;1.23;0.77;;;;;;;9.51;71.94;101372.53;4945190;28;20466;-93
2022/04/02 06:43:40;;;;;;;3.10;1.10;;;;;;;9.70;71.68;101395.88;4943376;28;20446;-93
2022/04/02 06:46:09;;;;;;;4.63;1.17;;;;;;;9.75;71.38;101398.94;4945091;28;20458;-93
2022/04/02 06:48:47;;;;;;;2.40;1.17;;;;;;;9.84;70.45;101410.69;4949257;28;20478;-94
2022/04/02 06:51:26;;;;;;;2.20;1.10;;;;;;;9.88;70.62;101412.91;5000601;28;20503;-93
2022/04/02 06:54:05;;;;;;;5.97;1.60;;;;;;;9.88;69.93;101412.06;5016845;28;20448;-92
2022/04/02 06:57:00;;;;;;;;;;;;;;;;;;;;;
2022/04/02 06:59:42;;;;;;;2.90;1.07;;;;;;;9.89;69.29;101400.09;5013316;28;20494;-92
2022/04/02 07:02:13;;;;;;;2.63;1.10;;;;;;;9.92;69.58;101407.94;4985026;28;20799;-92
2022/04/02 07:04:49;;;;;;;1.87;1.20;;;;;;;9.90;70.21;101404.53;4984502;28;20463;-93
2022/04/02 07:07:21;;;;;;;7.37;1.40;;;;;;;10.02;69.98;101419.53;5000194;28;20440;-93
2022/04/02 07:10:03;;;;;;;3.67;1.57;;;;;;;10.05;70.21;101435.56;5031869;28;20809;-93
2022/04/02 07:12:33;;;;;;;15.73;1.73;;;;;;;10.03;70.56;101413.03;5031485;28;20459;-93
2022/04/02 07:15:07;;;;;;;15.30;2.83;;;;;;;10.06;71.25;101415.44;5030157;28;20444;-92
2022/04/02 07:17:43;;;;;;;30.40;3.43;;;;;;;10.07;71.45;101405.34;5033044;28;20444;-93
2022/04/02 07:20:26;;;;;;;10.77;2.80;;;;;;;10.18;70.66;101411.31;5000480;28;20479;-93
2022/04/02 07:23:15;;;;;;;5.53;1.10;;;;;;;10.37;69.49;101434.69;5029496;28;20444;-92
2022/04/02 07:25:59;;;;;;;1.53;1.00;;;;;;;10.35;68.44;101421.19;5015408;28;20522;-93
2022/04/02 07:32:12;;;;;;;1.67;0.80;;;;;;;10.62;66.37;101438.16;4998415;28;20461;-91
2022/04/02 07:34:40;;;;;;;2.13;1.20;;;;;;;10.64;65.33;101420.56;4964142;28;20444;-92
2022/04/02 07:37:42;;;;;;;3.73;1.77;;;;;;;10.86;65.61;101443.53;4955701;28;20440;-93
2022/04/02 07:40:54;;;;;;;2.87;1.63;;;;;;;11.01;65.77;101443.63;4980199;28;20493;-93
2022/04/02 07:43:29;;;;;;;4.00;1.30;;;;;;;11.12;65.35;101447.84;4994727;28;20531;-93
2022/04/02 07:46:06;;;;;;;2.07;1.07;;;;;;;11.13;65.12;101447.66;4982676;28;20444;-93
2022/04/02 07:48:59;;;;;;;2.57;1.10;;;;;;;11.32;64.50;101465.50;4967740;28;20484;-93
2022/04/02 07:51:53;;;;;;;2.27;0.93;;;;;;;11.29;64.46;101443.97;4999924;28;20436;-93
2022/04/02 07:54:30;;;;;;;1.60;1.10;;;;;;;11.33;63.42;101437.09;4968459;28;20543;-94
2022/04/02 08:00:42;;;;;;;4.67;1.13;;;;;;;11.64;63.01;101462.50;5016488;28;20507;-93
2022/04/02 08:03:18;;;;;;;4.87;0.93;;;;;;;11.70;62.94;101450.84;4965561;28;20460;-93
2022/04/02 08:05:47;;;;;;;1.93;0.70;;;;;;;11.71;60.80;101438.00;4951933;28;20456;-94
2022/04/02 08:08:35;;;;;;;2.00;0.90;;;;;;;11.92;61.15;101462.00;4964224;28;20450;-93
2022/04/02 08:11:25;;;;;;;1.50;0.90;;;;;;;11.90;60.90;101436.66;4963608;28;21123;-93
2022/04/02 08:14:07;;;;;;;3.80;0.90;;;;;;;12.14;60.87;101461.06;4952524;28;20464;-93
2022/04/02 08:16:48;;;;;;;2.30;0.80;;;;;;;12.13;60.26;101447.53;4964394;28;20449;-93
2022/04/02 08:19:24;;;;;;;1.60;0.70;;;;;;;12.36;60.50;101475.75;4951152;28;20476;-93
2022/04/02 08:21:56;;;;;;;1.90;0.90;;;;;;;12.46;60.46;101473.59;4947671;28;20449;-93
2022/04/02 08:24:40;;;;;;;1.77;0.90;;;;;;;12.47;61.35;101455.25;4995191;28;20445;-94
2022/04/02 08:27:45;;;;;;;4.80;1.60;;;;;;;12.64;60.47;101474.06;4975404;28;20954;-94
2022/04/02 08:30:54;;;;;;;18.27;8.00;;;;;;;12.66;58.91;101454.69;5009231;28;20484;-94
2022/04/02 08:36:47;;;;;;;2.30;1.00;;;;;;;12.84;56.88;101451.53;5011851;28;20451;-94
2022/04/02 08:39:22;;;;;;;1.50;1.00;;;;;;;13.08;56.69;101478.66;4963191;28;20453;-93
2022/04/02 08:42:32;;;;;;;4.50;1.40;;;;;;;13.18;55.25;101478.38;4978170;28;21211;-93
2022/04/02 08:45:15;;;;;;;4.57;1.10;;;;;;;13.14;51.67;101455.91;4995115;28;20998;-92
2022/04/02 08:58:33;;;;;;;4.73;1.93;;;;;;;;;;5015000;28;20770;-91
2022/04/02 09:01:54;;;;;;;5.57;2.70;;;;;;;;;;4946631;28;20480;-89
2022/04/02 09:29:23;;;;;;;61.07;13.60;;;;;;;;;;4896561;29;20459;-89
2022/04/02 10:46:19;;;;;;;4.90;2.30;;;;;;;;;;5008866;28;20447;-90
2022/04/02 11:10:19;;;;;;;5.00;1.60;;;;;;;;;;4956281;29;20453;-90
2022/04/02 11:12:48;;;;;;;3.47;1.67;;;;;;;;;;4940295;29;20451;-89
2022/04/02 12:19:14;;;;;;;2.63;1.10;;;;;;;;;;5013159;28;20807;-91
2022/04/02 12:21:48;;;;;;;2.80;1.00;;;;;;;;;;4981840;28;20447;-91
2022/04/02 12:24:17;;;;;;;8.30;1.33;;;;;;;;;;4968661;28;20832;-91
2022/04/02 12:26:47;;;;;;;3.93;1.10;;;;;;;;;;4995991;28;20451;-90
2022/04/02 12:29:21;;;;;;;2.80;0.90;;;;;;;;;;4978547;28;20445;-90
2022/04/02 12:31:53;;;;;;;5.97;1.53;;;;;;;;;;4963284;28;20456;-91
2022/04/02 12:34:22;;;;;;;1.10;0.90;;;;;;;;;;4966472;28;20516;-90
2022/04/02 12:36:50;;;;;;;2.00;1.30;;;;;;;;;;4981566;28;20440;-90
2022/04/02 12:39:17;;;;;;;2.40;1.10;;;;;;;;;;4978213;28;20465;-90
2022/04/02 12:41:49;;;;;;;3.70;0.93;;;;;;;21.74;nan;101309.81;4962364;28;20445;-90
2022/04/02 12:44:26;;;;;;;4.10;1.23;;;;;;;21.98;nan;101320.47;4962337;28;20460;-90
2022/04/02 12:47:08;;;;;;;3.20;1.37;;;;;;;22.15;nan;101294.56;4978536;28;20449;-90
2022/04/02 12:49:37;;;;;;;2.90;0.93;;;;;;;22.45;nan;101316.41;4974043;28;20451;-91
2022/04/02 12:52:14;;;;;;;1.53;1.00;;;;;;;22.61;nan;101316.34;5007059;28;20460;-89
2022/04/02 12:54:52;;;;;;;2.50;1.17;;;;;;;22.77;nan;101314.63;4982086;28;20448;-90
2022/04/02 12:57:19;;;;;;;3.87;1.10;;;;;;;22.87;nan;101302.75;4973035;28;20448;-90
2022/04/02 12:59:53;;;;;;;1.50;1.03;;;;;;;22.85;nan;101286.28;4964184;28;20803;-92
2022/04/02 13:02:22;;;;;;;1.60;0.90;;;;;;;22.90;nan;101285.50;4965450;28;20460;-91
2022/04/02 13:22:53;;;;;;;1.93;0.90;;;;;;;23.22;nan;101261.28;5009213;28;20457;-90
2022/04/02 13:25:24;;;;;;;2.27;0.90;;;;;;;23.37;nan;101263.34;4945961;28;20453;-90
2022/04/02 13:28:01;;;;;;;1.93;0.87;;;;;;;23.54;nan;101268.81;4977073;28;20445;-90
2022/04/02 13:30:34;;;;;;;7.13;1.60;;;;;;;23.68;nan;101262.50;5009627;28;20452;-90
2022/04/02 13:33:08;;;;;;;5.40;1.67;;;;;;;23.82;nan;101262.91;4961588;28;20457;-90
2022/04/02 13:35:38;;;;;;;3.63;1.10;;;;;;;23.86;nan;101252.03;5005815;28;20454;-90
2022/04/02 13:38:28;;;;;;;3.97;0.80;;;;;;;23.92;nan;101254.56;4992890;28;20451;-90
2022/04/02 13:40:59;;;;;;;3.67;0.80;;;;;;;23.95;nan;101247.59;4990567;28;20487;-90
2022/04/02 13:43:33;;;;;;;3.20;1.13;;;;;;;24.01;nan;101246.53;5008940;28;20526;-90
2022/04/02 15:05:06;;;;;;;3.93;1.10;;;;;;;23.58;nan;101159.19;5007734;28;20444;-89
2022/04/02 15:08:15;;;;;;;5.00;0.97;;;;;;;23.62;nan;101159.47;4912614;29;20465;-89
2022/04/02 15:10:54;;;;;;;2.17;1.03;;;;;;;23.62;nan;101156.69;4901928;29;20979;-89
2022/04/02 15:13:24;;;;;;;7.53;1.40;;;;;;;23.62;nan;101156.69;4902270;29;20460;-89
2022/04/02 15:15:53;;;;;;;2.97;0.83;;;;;;;23.73;nan;101161.22;4886717;29;20475;-89
2022/04/02 15:18:26;;;;;;;4.30;1.30;;;;;;;23.77;nan;101162.34;4885116;29;20449;-89
2022/04/02 15:21:09;;;;;;;7.07;1.40;;;;;;;23.77;nan;101151.19;4886260;29;20492;-89
2022/04/02 15:24:12;;;;;;;3.93;1.20;;;;;;;23.70;nan;101133.84;4886498;29;20866;-89
2022/04/02 15:26:50;;;;;;;7.23;1.13;;;;;;;23.63;nan;101139.69;4901762;29;20814;-90
2022/04/02 15:29:41;;;;;;;4.40;1.03;;;;;;;23.58;nan;101136.84;4901905;29;20448;-89
2022/04/02 15:32:40;;;;;;;2.93;0.80;;;;;;;23.51;nan;101138.16;4903736;29;20433;-89
2022/04/02 15:35:14;;;;;;;6.57;1.10;;;;;;;23.45;nan;101130.91;4869654;29;20463;-89
2022/04/02 15:38:00;;;;;;;7.37;0.87;;;;;;;23.31;nan;101114.59;4890445;29;20460;-89
2022/04/02 15:40:29;;;;;;;2.70;1.00;;;;;;;23.40;nan;101126.94;4886028;29;20485;-88
2022/04/02 15:43:03;;;;;;;3.63;0.90;;;;;;;23.39;nan;101121.63;4900941;29;20452;-89
2022/04/02 15:45:32;;;;;;;6.20;1.40;;;;;;;23.37;nan;101123.84;4912449;28;20443;-89
2022/04/02 15:48:07;;;;;;;5.97;1.27;;;;;;;23.33;nan;101122.72;4968451;28;20440;-89
2022/04/02 15:50:35;;;;;;;4.07;2.00;;;;;;;23.34;nan;101125.22;4998084;28;20483;-88
2022/04/02 15:53:15;;;;;;;4.80;2.20;;;;;;;23.32;nan;101116.28;4982354;28;20448;-86
2022/04/02 15:55:59;;;;;;;6.00;3.07;;;;;;;23.26;nan;101116.53;4997669;28;20471;-89
2022/04/02 15:58:29;;;;;;;11.00;2.73;;;;;;;23.20;nan;101112.03;4965401;28;20523;-89
2022/04/02 16:00:59;;;;;;;12.23;3.10;;;;;;;23.17;nan;101110.63;4978261;28;20485;-89
2022/04/02 16:03:33;;;;;;;2.90;0.90;;;;;;;23.08;nan;101109.47;4960104;28;20506;-89
2022/04/02 16:06:21;;;;;;;2.43;1.17;;;;;;;23.02;nan;101114.16;4978280;28;20450;-89
2022/04/02 16:08:59;;;;;;;6.00;2.33;;;;;;;22.95;nan;101109.91;4995317;28;20457;-89
2022/04/02 16:11:39;;;;;;;5.57;1.90;;;;;;;22.87;nan;101108.47;4978070;28;20449;-89
2022/04/02 16:14:08;;;;;;;5.50;2.70;;;;;;;22.81;nan;101105.88;4978097;28;20449;-90
2022/04/02 16:16:48;;;;;;;3.80;2.20;;;;;;;22.73;nan;101113.59;4978003;28;20517;-89
2022/04/02 16:19:40;;;;;;;2.80;1.00;;;;;;;22.58;nan;101099.53;4978650;28;20514;-90
2022/04/02 16:22:09;;;;;;;4.77;1.03;;;;;;;22.40;nan;101097.13;4962968;28;20485;-89
2022/04/02 16:24:42;;;;;;;3.20;0.90;;;;;;;22.21;nan;101104.16;4946950;28;20465;-90
2022/04/02 16:27:13;;;;;;;5.87;2.17;;;;;;;22.05;nan;101106.78;4960697;28;20454;-91
2022/04/02 16:29:41;;;;;;;2.77;1.30;;;;;;;21.92;nan;101089.63;4995624;28;20508;-89
2022/04/02 16:32:10;;;;;;;5.43;1.30;;;;;;;21.76;nan;101094.16;4945511;28;20814;-89
2022/04/02 16:34:41;;;;;;;3.50;1.10;;;;;;;21.66;nan;101085.69;4962128;28;20822;-90
2022/04/02 16:37:10;;;;;;;9.67;1.20;;;;;;;21.58;nan;101094.47;4978600;28;20539;-89
2022/04/02 16:39:49;;;;;;;4.83;1.30;;;;;;;21.46;nan;101082.63;4954873;28;20461;-89
2022/04/02 16:42:23;;;;;;;8.03;1.13;;;;;;;21.29;nan;101069.63;4978557;28;21012;-93
2022/04/02 16:44:55;;;;;;;6.87;2.10;;;;;;;21.41;nan;101088.13;4979395;28;20491;-90
2022/04/02 16:47:25;;;;;;;7.33;1.00;;;;;;;21.39;nan;101085.59;5002889;28;20440;-90
2022/04/02 16:50:00;;;;;;;6.00;1.60;;;;;;;21.36;nan;101086.09;4962981;28;20460;-91
2022/04/02 17:08:03;;;;;;;4.43;0.80;;;;;;;21.07;nan;101082.63;5002298;28;20936;-89
2022/04/02 17:10:33;;;;;;;5.63;1.00;;;;;;;20.95;nan;101073.56;4975076;28;20461;-89
2022/04/02 17:13:06;;;;;;;5.27;1.60;;;;;;;20.97;nan;101088.84;4960963;28;20474;-89
2022/04/02 17:15:35;;;;;;;6.37;1.47;;;;;;;20.89;nan;101092.06;4945524;28;20445;-89
2022/04/02 17:18:03;;;;;;;3.30;0.90;;;;;;;20.85;nan;101093.66;4984648;28;20447;-89
2022/04/02 17:20:31;;;;;;;3.30;0.93;;;;;;;20.78;nan;101084.69;4934364;29;20530;-89
2022/04/02 17:23:01;;;;;;;5.20;0.83;;;;;;;20.80;nan;101089.94;4911913;29;20460;-90
2022/04/02 17:25:34;;;;;;;5.57;1.53;;;;;;;20.79;nan;101089.09;4889113;29;20445;-88
2022/04/02 17:28:06;;;;;;;5.23;0.93;;;;;;;20.83;nan;101089.44;4880734;29;20458;-88
2022/04/02 17:30:35;;;;;;;3.57;1.00;;;;;;;20.82;nan;101080.28;4881597;29;20856;-89
2022/04/02 17:40:34;;;;;;;2.30;0.97;;;;;;;20.39;nan;101069.84;5011798;28;20471;-89
2022/04/02 17:43:06;;;;;;;5.03;1.20;;;;;;;20.31;nan;101084.09;4995914;28;20460;-88
2022/04/02 17:45:36;;;;;;;3.77;1.23;;;;;;;20.19;nan;101086.09;4964335;28;20812;-89
2022/04/02 17:48:08;;;;;;;6.97;0.97;;;;;;;20.11;nan;101084.56;4971624;28;20511;-89
2022/04/02 17:50:37;;;;;;;9.03;1.40;;;;;;;20.02;nan;101086.88;4992864;28;20437;-88
2022/04/02 17:53:14;;;;;;;7.40;1.20;;;;;;;19.90;nan;101083.31;4976439;28;20453;-89
2022/04/02 17:55:45;;;;;;;5.37;1.67;;;;;;;19.76;nan;101081.94;4990237;28;20506;-89
2022/04/02 17:58:21;;;;;;;5.37;1.63;;;;;;;19.64;nan;101089.44;5006657;28;20462;-89
2022/04/02 18:00:54;;;;;;;2.03;1.00;;;;;;;19.47;nan;101088.47;4989583;28;20828;-89
2022/04/02 18:03:50;;;;;;;3.40;1.37;;;;;;;19.29;nan;101092.25;4965302;28;20526;-93